Aérodrome :
LOGIN :

S'inscrire | Disclaimer

   EN    FR    IT 

 










Légende :    VFR   VFR Marginal   IFR   IFR Intensif   IFR Très Intensif
Visi : 
Plafond : 
>= 8 km
>= 3000ft
5 à 8 km
1000 à 3000 ft
1500m à 5 km
500 à 1000 ft
800 à 1500m
200 à 500 ft
< 800m
< 200 ft
Symboles :   Orages  Brouillard  Fortes neiges  Fortes précipitations  Vent > 20 kt
SIGMETs :   Divers  Orages  Givrage  Turbulence  Onde Orograph.  Cendres Volcan.







- Altitude de l'aérodrome : 141 ft
- Code IATA : SKS


EKSP - Srydstrup Vojens

DERNIER METAR :
  • 230550Z 14004KT 8000 NSC M07/M08 Q1002 TEMPO 5000 BR BKN012

METARs EXPIRÉS :
  • 230520Z 13005KT 8000 NSC M05/M07 Q1002 TEMPO 5000 BR BKN012
  • 230450Z 15006KT CAVOK M05/M07 Q1001 RMK BKN180
  • 230420Z 14005KT CAVOK M05/M06 Q1001
  • 230350Z 14007KT CAVOK M05/M07 Q1001 RMK SCT180
  • 230320Z 13005KT CAVOK M05/M07 Q1001 RMK FEW200

TAF TAF EKSP
Valide du 23 à 06h jusqu'au 24 à 06h UTC


230522Z 2306/2406 15012KT 8000 FEW012 BKN200
TEMPO 2306/2406 4500 BR BKN012
Pas de NOTAMs connus pour ce terrain.



MET'MAP, la Météo Aéronautique d'un coup d'oeil ! - Copyright ORBIFLY Décembre 2007 - Disclaimer

ORBIFLY MET'MAP TEAM :

Programmation & Développement : Alexandra Zaïnal
Conception & Développement : Baudouin d'Aumeries
Co-Programmation & Développement : Marc-Olivier Méhu
Soutien technique & logistique : Manuel Goepfert

Contact : metmap@orbifly.com




SOURCES & CREDITS :

   NOAA